Altus Air Force Base
KLTS : rendu visible

Aérodrome :











RETROUVEZ-NOUS SUR...

 
LOGIN :

S'inscrire | Disclaimer

   EN    FR    IT 

 









Légende :    VFR   VFR Marginal   IFR   IFR Intensif   IFR Très Intensif
Visi : 
Plafond : 
>= 8 km
>= 3000ft
5 à 8 km
1000 à 3000 ft
1500m à 5 km
500 à 1000 ft
800 à 1500m
200 à 500 ft
< 800m
< 200 ft
Symboles :   Orages  Brouillard  Fortes neiges  Fortes précipitations  Vent > 20 kt






- Altitude de l'aérodrome : 1382 ft


KLTS - Altus Air Force Base

DERNIER METAR :
  • 250556Z 34018G25KT 10SM BKN033 OVC100 06/03 A2995 RMK AO2A PK WND 34036/01 RAE23DZB23E25 SLP141 P0001 60001 T00630029 10134 20061 401560061 52039 $

METARs EXPIRÉS :
  • 250540Z 34021G27KT 10SM BKN033 OVC100 06/03 A2995 RMK AO2A RAE23DZB23E25 SLP143 $
  • 250525Z 34020G30KT 10SM FEW025 SCT032 SCT050 OVC110 06/04 A2994 RMK AO2A RAE23DZB23E25 SLP139 $
  • 250456Z 32020G36KT 10SM -RA BKN050 09/05 A2993 RMK AO2A RAB10 SLP134 P0000 T00870047 $
  • 250420Z AUTO 36009KT 10SM -RA FEW045 BKN060 BKN075 OVC090 10/04 A2990 RMK AO2 RAB10 SLP124 $
  • 250415Z 02005KT 10SM -RA BKN065 OVC085 10/03 A2990 RMK AO2A RAB10 SLP124 $
  • 250410Z 04008KT 10SM -RA BKN070 OVC090 10/03 A2990 RMK AO2A RAB10 SLP124 $
  • 250356Z AUTO 03005KT 10SM OVC090 09/03 A2989 RMK AO2 PRESRR SLP121 T00890031 $

TAF AMD TAF KLTS
Valide du 25 à 05h jusqu'au 26 à 07h UTC


250525Z 2505/2607 33010G20KT 9000 -SHRA OVC050 620505 QNH2993INS
TEMPO 2505/2507 33020G35KT 510003
BECMG 2509/2510 33008KT 9999 NSW SCT020 BKN050 620505 QNH2994INS
BECMG 2513/2514 32009KT 9999 SCT080 QNH3002INS
BECMG 2515/2516 33010G20KT 9999 BKN030 510042 QNH3004INS
BECMG 2518/2519 33010G20KT 9999 BKN040 620404 510042 QNH3002INS
BECMG 2522/2523 33020G30KT 9999 BKN030 620303 510003 QNH3004INS
BECMG 2601/2602 35010G20KT 9999 BKN025 620253 510052 QNH3021INS TX10/2522Z TN00/2512Z



MET'MAP, la Météo Aéronautique d'un coup d'oeil ! - Copyright ORBIFLY Décembre 2007 - Disclaimer

ORBIFLY MET'MAP TEAM :

Programmation & Développement : Alexandra Zaïnal
Sur une idée originale de : Baudouin d'Aumeries
Assistance à la programmation : Marc-Olivier Méhu
Soutien technique & logistique : Manuel Goepfert

Contact : metmap@orbifly.com




SOURCES & CREDITS :

   NOAA       Earth
Advisory